Aeroporto :
LOGIN :

Iscrizione | Disclaimer

   EN    FR    IT 

 










Sommario :    VFR   VFR Marginale   IFR   IFR Intensivo   IFR Molto Intensivo
Visibilità : 
Base nubi : 
>= 8 km
>= 3000ft
5 / 8 km
1000 / 3000 ft
1500m / 5 km
500 / 1000 ft
800 / 1500m
200 / 500 ft
< 800m
< 200 ft
Simboli :   Temporali  Nebbia  Neve Forte  Precipitazioni Forti  Vento > 20 kt
SIGMETs :   Varie  Temporali  Ghiacco  Turbolenza  Onda orograficha  Ceneri Vulcaniche






- Altitudine del aeroporto : 17 ft
- Codice IATA : DND


EGPN - Dundee

ULTIMO METAR :
  • 121020Z 35008KT 290V040 9999 FEW020 09/05 Q0991

METARs OBSOLETI :
  • 120950Z 35007KT 310V040 9999 FEW020 SCT040 09/05 Q0991
  • 120920Z 32005KT 220V020 9999 FEW020 SCT040 08/05 Q0990
  • 120850Z VRB03KT 9999 FEW020 SCT040 08/05 Q0990
  • 120820Z VRB03KT 9999 SCT020 SCT040 07/05 Q0990
  • 120750Z 27005KT 9999 SCT020 06/05 Q0989

TAF TAF EGPN
Valido dal 12 a 09 ore il 12 a 18 ore UTC


120804Z 1209/1218 33009KT 9999 SCT030
PROB30
TEMPO 1209/1218 34015G25KT 6000 SHRA



MetMap, La meteo Aeronautica in un colpo d'occhio ! - Copyright ORBIFLY Dicembre 2007 - Disclaimer

ORBIFLY MET'MAP TEAM :

Programmazione e sviluppo : Alexandra Zaïnal
Concezione e sviluppo : Baudouin d'Aumeries
Co-Programmazione e sviluppo : Marc-Olivier Méhu
Supporto tecnico e logistico : Manuel Goepfert
Aiuto per la traduzione : Arnaldo La Scala

Contatto : metmap@orbifly.com




FONTI E CREDITI :

   NOAA